createdAt,value
2018-12-27T00:00:46.327Z,1.33
2018-12-27T00:05:47.286Z,1.63
2018-12-27T00:10:47.993Z,1.27
2018-12-27T00:15:49.668Z,1.54
2018-12-27T00:20:50.330Z,0.34
2018-12-27T00:25:51.302Z,0.84
2018-12-27T00:30:52.245Z,0.69
2018-12-27T00:35:52.982Z,0.73
2018-12-27T00:40:53.828Z,0.82
2018-12-27T00:45:54.722Z,1.08
2018-12-27T00:50:55.423Z,1.07
2018-12-27T00:55:56.067Z,1.01
2018-12-27T01:00:56.961Z,1.03
2018-12-27T01:05:57.697Z,1.10
2018-12-27T01:10:58.563Z,1.16
2018-12-27T01:15:59.303Z,1.12
2018-12-27T01:20:59.932Z,1.07
2018-12-27T01:26:00.616Z,0.94
2018-12-27T01:31:01.331Z,0.85
2018-12-27T01:36:02.000Z,1.05
2018-12-27T01:41:02.923Z,0.67
2018-12-27T01:46:03.605Z,0.73
2018-12-27T01:51:04.468Z,1.03
2018-12-27T01:56:05.087Z,0.86
2018-12-27T02:01:06.036Z,0.86
2018-12-27T02:06:06.959Z,0.92
2018-12-27T02:11:07.762Z,0.82
2018-12-27T02:16:08.471Z,0.88
2018-12-27T02:21:09.157Z,0.67
2018-12-27T02:26:09.827Z,0.92
2018-12-27T02:31:10.454Z,1.02
2018-12-27T02:36:11.346Z,1.06
2018-12-27T02:41:12.297Z,1.24
2018-12-27T02:46:13.356Z,1.15
2018-12-27T02:51:14.076Z,1.25
2018-12-27T02:56:15.019Z,1.51
2018-12-27T03:01:15.952Z,0.73
2018-12-27T03:06:16.858Z,0.82
2018-12-27T03:11:17.508Z,1.05
2018-12-27T03:16:18.393Z,1.17
2018-12-27T03:21:19.332Z,1.13
2018-12-27T03:26:20.350Z,1.33
2018-12-27T03:31:21.011Z,1.17
2018-12-27T03:36:21.685Z,0.49
2018-12-27T03:41:22.596Z,0.14
2018-12-27T03:46:23.284Z,0.01
2018-12-27T03:51:23.915Z,0.13
2018-12-27T03:56:24.776Z,0.40
2018-12-27T04:01:25.437Z,0.77
2018-12-27T04:06:26.065Z,0.61
2018-12-27T04:11:26.752Z,0.56
2018-12-27T04:16:27.479Z,0.33
2018-12-27T04:21:28.137Z,0.38
2018-12-27T04:26:28.754Z,0.29
2018-12-27T04:31:29.539Z,0.45
2018-12-27T04:36:30.325Z,0.27
2018-12-27T04:41:31.191Z,0.30
2018-12-27T04:46:31.882Z,0.25
2018-12-27T04:51:32.541Z,0.24
2018-12-27T04:56:33.403Z,0.43
2018-12-27T05:01:34.030Z,0.37
2018-12-27T05:06:34.684Z,0.53
2018-12-27T05:11:35.347Z,0.45
2018-12-27T05:16:36.061Z,0.19
2018-12-27T05:21:36.755Z,0.23
2018-12-27T05:26:37.376Z,0.54
2018-12-27T05:31:38.331Z,0.31
2018-12-27T05:36:38.997Z,0.30
2018-12-27T05:41:40.673Z,0.38
2018-12-27T05:46:42.380Z,0.21
2018-12-27T05:51:43.101Z,0.00
2018-12-27T05:56:43.704Z,0.26
2018-12-27T06:01:44.372Z,0.63
2018-12-27T06:06:45.065Z,0.57
2018-12-27T06:11:46.034Z,0.44
2018-12-27T06:16:46.757Z,0.21
2018-12-27T06:21:47.373Z,-0.03
2018-12-27T06:26:48.091Z,0.29
2018-12-27T06:31:49.016Z,0.07
2018-12-27T06:36:49.885Z,0.08
2018-12-27T06:41:50.856Z,-0.12
2018-12-27T06:46:51.561Z,0.03
2018-12-27T06:51:52.454Z,-0.30
2018-12-27T06:56:53.065Z,-0.26
2018-12-27T07:01:53.967Z,-0.36
2018-12-27T07:06:54.937Z,-0.36
2018-12-27T07:11:56.673Z,-0.34
2018-12-27T07:16:57.526Z,-0.36
2018-12-27T07:21:58.286Z,-0.47
2018-12-27T07:26:59.272Z,-0.37
2018-12-27T07:32:00.250Z,-0.36
2018-12-27T07:37:01.174Z,-0.39
2018-12-27T07:42:01.920Z,-0.42
2018-12-27T07:47:02.908Z,-0.48
2018-12-27T07:52:04.623Z,-0.42
2018-12-27T07:57:05.224Z,-0.41
2018-12-27T08:02:06.194Z,-0.04
2018-12-27T08:07:06.862Z,0.05
2018-12-27T08:12:07.551Z,0.05
2018-12-27T08:17:08.296Z,0.19
2018-12-27T08:22:09.002Z,0.12
2018-12-27T08:27:09.940Z,0.42
2018-12-27T08:32:10.848Z,0.51
2018-12-27T08:37:11.495Z,0.93
2018-12-27T08:42:12.681Z,0.43
2018-12-27T08:47:13.403Z,-0.57
2018-12-27T08:52:14.043Z,-0.33
2018-12-27T08:57:14.971Z,-0.30
2018-12-27T09:02:15.720Z,-0.12
2018-12-27T09:07:16.427Z,-0.07
2018-12-27T09:12:17.303Z,-0.28
2018-12-27T09:17:18.263Z,0.30
2018-12-27T09:22:18.988Z,0.19
2018-12-27T09:27:19.605Z,0.09
2018-12-27T09:32:20.273Z,0.42
2018-12-27T09:37:20.913Z,0.21
2018-12-27T09:42:21.575Z,-0.13
2018-12-27T09:47:22.251Z,0.10
2018-12-27T09:52:22.956Z,-0.13
2018-12-27T09:57:23.630Z,-0.09
2018-12-27T10:02:24.514Z,0.07
2018-12-27T10:07:25.210Z,-0.22
2018-12-27T10:12:26.132Z,-0.26
2018-12-27T10:17:29.026Z,0.20
2018-12-27T10:22:29.718Z,0.58
2018-12-27T10:27:30.626Z,0.37
2018-12-27T10:32:31.323Z,0.66
2018-12-27T10:37:32.222Z,0.60
2018-12-27T10:42:33.164Z,0.45
2018-12-27T10:47:33.908Z,1.18
2018-12-27T10:52:34.752Z,1.53
2018-12-27T10:57:35.402Z,1.89
2018-12-27T11:02:36.039Z,1.27
2018-12-27T11:07:36.730Z,1.17
2018-12-27T11:12:37.479Z,1.59
2018-12-27T11:17:38.189Z,1.89
2018-12-27T11:22:39.096Z,1.82
2018-12-27T11:27:39.853Z,1.57
2018-12-27T11:32:40.462Z,1.07
2018-12-27T11:37:41.104Z,1.11
2018-12-27T11:42:41.752Z,1.24
2018-12-27T11:47:42.616Z,1.53
2018-12-27T11:52:43.271Z,1.46
2018-12-27T11:57:43.905Z,2.01
2018-12-27T12:02:44.799Z,2.67
2018-12-27T12:07:45.747Z,2.84
2018-12-27T12:12:46.729Z,3.05
2018-12-27T12:17:47.402Z,2.23
2018-12-27T12:22:48.083Z,1.69
2018-12-27T12:27:48.731Z,1.06
2018-12-27T12:32:49.620Z,0.89
2018-12-27T12:37:50.688Z,1.06
2018-12-27T12:42:51.428Z,1.34
2018-12-27T12:47:52.042Z,1.57
2018-12-27T12:52:52.922Z,1.72
2018-12-27T12:57:53.919Z,1.69
2018-12-27T13:02:54.608Z,2.13
2018-12-27T13:07:55.256Z,1.99
2018-12-27T13:12:56.130Z,2.68
2018-12-27T13:17:56.872Z,2.59
2018-12-27T13:22:57.741Z,2.70
2018-12-27T13:27:58.713Z,2.07
2018-12-27T13:32:59.738Z,1.91
2018-12-27T13:38:00.356Z,1.95
2018-12-27T13:43:01.031Z,2.66
2018-12-27T13:48:01.929Z,3.43
2018-12-27T13:53:02.655Z,3.74
2018-12-27T13:58:03.276Z,2.88
2018-12-27T14:03:03.936Z,2.75
2018-12-27T14:08:04.572Z,2.88
2018-12-27T14:13:05.468Z,2.63
2018-12-27T14:18:06.107Z,2.78
2018-12-27T14:23:06.823Z,3.03
2018-12-27T14:28:07.517Z,2.66
2018-12-27T14:33:08.455Z,2.67
2018-12-27T14:38:09.118Z,3.45
2018-12-27T14:43:09.833Z,2.64
2018-12-27T14:48:10.504Z,1.73
2018-12-27T14:53:11.121Z,1.89
2018-12-27T14:58:11.811Z,1.87
2018-12-27T15:03:12.782Z,2.49
2018-12-27T15:08:13.716Z,2.41
2018-12-27T15:13:14.626Z,1.93
2018-12-27T15:18:15.528Z,1.62
2018-12-27T15:23:16.163Z,1.69
2018-12-27T15:28:16.803Z,2.06
2018-12-27T15:33:17.464Z,1.78
2018-12-27T15:38:18.062Z,2.13
2018-12-27T15:43:18.702Z,1.80
2018-12-27T15:48:19.348Z,1.21
2018-12-27T15:53:20.043Z,1.17
2018-12-27T15:58:20.897Z,1.74
2018-12-27T16:03:21.805Z,1.80
2018-12-27T16:08:22.505Z,1.93
2018-12-27T16:13:23.175Z,1.75
2018-12-27T16:18:24.040Z,1.76
2018-12-27T16:23:25.036Z,1.64
2018-12-27T16:28:25.969Z,1.96
2018-12-27T16:33:26.778Z,2.14
2018-12-27T16:38:27.455Z,1.37
2018-12-27T16:43:28.192Z,1.63
2018-12-27T16:48:29.094Z,1.49
2018-12-27T16:53:30.216Z,1.69
2018-12-27T16:58:31.096Z,1.71
2018-12-27T17:03:32.353Z,1.26
2018-12-27T17:08:33.078Z,1.25
2018-12-27T17:13:33.680Z,1.24
2018-12-27T17:18:34.395Z,1.53
2018-12-27T17:23:35.106Z,1.62
2018-12-27T17:28:36.036Z,1.69
2018-12-27T17:33:36.764Z,1.37
2018-12-27T17:38:37.620Z,1.76
2018-12-27T17:43:38.256Z,1.79
2018-12-27T17:48:38.979Z,2.00
2018-12-27T17:53:39.922Z,1.79
2018-12-27T17:58:40.585Z,1.62
2018-12-27T18:03:41.632Z,2.24
2018-12-27T18:08:42.266Z,1.68
2018-12-27T18:13:43.349Z,1.74
2018-12-27T18:18:44.001Z,1.59
2018-12-27T18:23:44.671Z,1.99
2018-12-27T18:28:45.517Z,1.83
2018-12-27T18:33:47.178Z,1.38
2018-12-27T18:38:47.803Z,1.42
2018-12-27T18:43:48.759Z,1.28
2018-12-27T18:48:49.425Z,1.07
2018-12-27T18:53:50.108Z,1.05
2018-12-27T18:58:50.821Z,1.19
2018-12-27T19:03:51.523Z,1.40
2018-12-27T19:08:55.703Z,1.18
2018-12-27T19:13:56.371Z,0.73
2018-12-27T19:18:57.322Z,1.39
2018-12-27T19:23:57.989Z,1.57
2018-12-27T19:28:58.613Z,1.15
2018-12-27T19:33:59.477Z,1.00
2018-12-27T19:39:00.375Z,1.05
2018-12-27T19:44:01.283Z,1.21
2018-12-27T19:49:02.167Z,0.83
2018-12-27T19:54:03.106Z,0.62
2018-12-27T19:59:03.751Z,0.91
2018-12-27T20:04:08.196Z,0.85
2018-12-27T20:09:08.855Z,1.00
2018-12-27T20:14:09.579Z,1.03
2018-12-27T20:19:10.255Z,0.70
2018-12-27T20:24:10.964Z,0.93
2018-12-27T20:29:11.637Z,0.95
2018-12-27T20:34:12.464Z,0.22
2018-12-27T20:39:13.141Z,0.56
2018-12-27T20:44:13.767Z,0.19
2018-12-27T20:49:14.687Z,0.24
2018-12-27T20:54:15.387Z,0.08
2018-12-27T20:59:17.901Z,0.55
2018-12-27T21:04:18.750Z,0.54
2018-12-27T21:09:19.663Z,0.65
2018-12-27T21:14:20.307Z,1.04
2018-12-27T21:19:21.205Z,0.70
2018-12-27T21:24:21.862Z,0.88
2018-12-27T21:29:22.728Z,0.71
2018-12-27T21:34:23.435Z,0.46
2018-12-27T21:39:24.316Z,0.69
2018-12-27T21:44:25.214Z,0.83
2018-12-27T21:49:25.982Z,1.00
2018-12-27T21:54:26.609Z,1.31
2018-12-27T21:59:27.448Z,1.31
2018-12-27T22:04:28.106Z,1.40
2018-12-27T22:09:28.796Z,1.35
2018-12-27T22:14:29.431Z,1.02
2018-12-27T22:19:30.021Z,0.36
2018-12-27T22:24:30.659Z,0.35
2018-12-27T22:29:31.311Z,0.34
2018-12-27T22:34:32.120Z,0.41
2018-12-27T22:39:32.801Z,0.31
2018-12-27T22:44:33.426Z,0.73
2018-12-27T22:49:34.353Z,0.77
2018-12-27T22:54:36.216Z,0.20
2018-12-27T22:59:37.188Z,0.11
2018-12-27T23:04:38.013Z,0.25
2018-12-27T23:09:38.756Z,0.23
2018-12-27T23:14:39.379Z,0.76
2018-12-27T23:19:40.400Z,0.77
2018-12-27T23:24:41.349Z,0.93
2018-12-27T23:29:42.052Z,1.16
2018-12-27T23:34:42.916Z,1.43
2018-12-27T23:39:43.561Z,1.40
2018-12-27T23:44:44.415Z,1.50
2018-12-27T23:49:45.160Z,1.40
2018-12-27T23:54:45.812Z,1.44
2018-12-27T23:59:46.494Z,1.42
